createdAt,value
2023-02-07T00:01:28.214Z,0.10
2023-02-07T00:06:29.086Z,0.10
2023-02-07T00:11:24.758Z,0.00
2023-02-07T00:16:18.478Z,0.00
2023-02-07T00:21:13.997Z,0.00
2023-02-07T00:26:10.195Z,0.10
2023-02-07T00:31:09.734Z,0.00
2023-02-07T00:36:06.749Z,0.00
2023-02-07T00:41:02.897Z,-0.10
2023-02-07T00:45:57.877Z,-0.30
2023-02-07T00:50:51.235Z,-0.40
2023-02-07T00:55:44.578Z,-0.50
2023-02-07T01:00:37.868Z,-0.60
2023-02-07T01:10:43.498Z,-0.50
2023-02-07T01:15:39.235Z,-0.60
2023-02-07T01:20:32.864Z,-0.60
2023-02-07T01:25:26.861Z,-0.80
2023-02-07T01:30:22.194Z,-0.70
2023-02-07T01:35:15.778Z,-0.80
2023-02-07T01:40:13.070Z,-0.80
2023-02-07T01:45:29.577Z,-0.60
2023-02-07T01:50:23.967Z,-0.40
2023-02-07T01:55:24.114Z,-0.40
2023-02-07T02:00:19.248Z,-0.50
2023-02-07T02:05:17.362Z,-0.80
2023-02-07T02:10:19.169Z,-0.80
2023-02-07T02:15:46.531Z,-0.80
2023-02-07T02:21:30.624Z,-0.90
2023-02-07T02:26:59.233Z,-1.00
2023-02-07T02:32:45.324Z,-0.80
2023-02-07T02:53:13.621Z,-0.90
2023-02-07T02:58:22.626Z,-0.90
2023-02-07T03:03:47.913Z,-0.90
2023-02-07T03:08:50.210Z,-0.90
2023-02-07T03:14:00.261Z,-0.90
2023-02-07T03:19:04.753Z,-1.00
2023-02-07T03:24:03.385Z,-1.00
2023-02-07T03:39:09.471Z,-0.90
2023-02-07T03:44:07.217Z,-0.90
2023-02-07T03:49:00.645Z,-0.90
2023-02-07T03:53:56.550Z,-1.00
2023-02-07T03:58:51.377Z,-1.10
2023-02-07T04:03:45.270Z,-1.10
2023-02-07T04:08:38.830Z,-1.10
2023-02-07T04:13:32.551Z,-1.10
2023-02-07T04:18:27.723Z,-1.20
2023-02-07T04:23:21.210Z,-1.30
2023-02-07T04:28:14.940Z,-1.50
2023-02-07T04:33:08.587Z,-1.40
2023-02-07T04:43:15.235Z,-1.30
2023-02-07T04:48:08.591Z,-1.30
2023-02-07T04:53:02.050Z,-1.30
2023-02-07T04:57:55.543Z,-1.40
2023-02-07T05:02:56.609Z,-1.30
2023-02-07T05:07:50.159Z,-1.30
2023-02-07T05:12:43.686Z,-1.40
2023-02-07T05:17:38.710Z,-1.30
2023-02-07T05:22:33.629Z,-1.30
2023-02-07T05:27:27.043Z,-1.10
2023-02-07T05:32:38.391Z,-1.10
2023-02-07T05:37:33.250Z,-1.10
2023-02-07T05:42:26.784Z,-1.20
2023-02-07T05:47:20.229Z,-1.20
2023-02-07T05:52:15.732Z,-1.20
2023-02-07T05:57:10.613Z,-1.40
2023-02-07T06:02:04.039Z,-1.30
2023-02-07T06:12:02.556Z,-1.30
2023-02-07T06:16:59.045Z,-1.40
2023-02-07T06:21:52.490Z,-1.60
2023-02-07T06:26:46.994Z,-1.60
2023-02-07T06:31:40.465Z,-1.60
2023-02-07T06:36:35.334Z,-1.50
2023-02-07T06:41:28.756Z,-1.40
2023-02-07T06:46:22.217Z,-1.40
2023-02-07T06:51:16.077Z,-1.50
2023-02-07T06:56:10.798Z,-1.60
2023-02-07T07:01:05.752Z,-1.50
2023-02-07T07:06:00.549Z,-1.30
2023-02-07T07:10:54.149Z,-1.50
2023-02-07T07:15:54.191Z,-1.50
2023-02-07T07:20:47.637Z,-1.50
2023-02-07T07:25:41.105Z,-1.60
2023-02-07T07:30:34.607Z,-1.60
2023-02-07T07:35:29.896Z,-1.60
2023-02-07T07:40:23.304Z,-1.60
2023-02-07T07:45:16.838Z,-1.40
2023-02-07T07:50:10.798Z,-1.40
2023-02-07T07:55:06.078Z,-1.30
2023-02-07T07:59:59.427Z,-1.20
2023-02-07T08:04:53.065Z,-1.10
2023-02-07T08:09:46.431Z,-1.20
2023-02-07T08:14:42.540Z,-1.20
2023-02-07T08:19:38.372Z,-1.00
2023-02-07T08:34:47.265Z,-1.00
2023-02-07T08:39:40.757Z,-1.30
2023-02-07T09:00:09.767Z,-0.60
2023-02-07T09:05:03.694Z,-0.30
2023-02-07T09:09:57.150Z,-0.40
2023-02-07T09:14:50.476Z,-0.50
2023-02-07T09:40:19.203Z,-0.30
2023-02-07T09:45:19.975Z,-0.20
2023-02-07T09:50:24.131Z,-0.20
2023-02-07T09:55:23.278Z,0.10
2023-02-07T10:00:25.716Z,0.00
2023-02-07T10:21:01.744Z,0.30
2023-02-07T10:26:09.936Z,0.40
2023-02-07T10:31:13.540Z,0.50
2023-02-07T10:36:15.905Z,0.30
2023-02-07T10:46:21.573Z,0.20
2023-02-07T11:11:50.811Z,0.30
2023-02-07T11:37:30.283Z,0.50
2023-02-07T11:57:47.738Z,0.40
2023-02-07T12:02:41.619Z,0.40
2023-02-07T12:07:44.845Z,0.30
2023-02-07T12:12:48.159Z,0.30
2023-02-07T12:17:57.249Z,0.30
2023-02-07T12:23:14.206Z,0.40
2023-02-07T12:28:26.511Z,0.50
2023-02-07T12:33:31.383Z,0.50
2023-02-07T12:38:28.450Z,0.60
2023-02-07T12:43:28.527Z,0.80
2023-02-07T12:48:34.648Z,0.80
2023-02-07T12:53:49.421Z,0.70
2023-02-07T12:59:00.673Z,0.70
2023-02-07T13:04:27.876Z,0.90
2023-02-07T13:09:33.091Z,1.00
2023-02-07T13:14:47.198Z,1.00
2023-02-07T13:19:53.354Z,1.10
2023-02-07T13:24:49.178Z,1.10
2023-02-07T13:29:47.464Z,1.10
2023-02-07T13:39:59.016Z,1.00
2023-02-07T13:45:03.991Z,1.00
2023-02-07T13:50:10.667Z,1.10
2023-02-07T13:55:21.542Z,1.00
2023-02-07T14:00:23.756Z,1.00
2023-02-07T14:05:30.741Z,1.00
2023-02-07T14:10:45.622Z,1.00
2023-02-07T14:16:07.146Z,1.00
2023-02-07T14:21:02.995Z,1.10
2023-02-07T14:25:56.445Z,1.10
2023-02-07T14:31:14.621Z,1.20
2023-02-07T14:36:26.875Z,1.20
2023-02-07T14:41:29.891Z,1.30
2023-02-07T14:56:53.215Z,1.10
2023-02-07T15:01:46.626Z,1.20
2023-02-07T15:11:49.442Z,1.20
2023-02-07T15:16:45.092Z,1.20
2023-02-07T15:21:41.950Z,1.20
2023-02-07T15:26:36.512Z,1.10
2023-02-07T15:31:32.054Z,1.00
2023-02-07T15:36:36.084Z,1.00
2023-02-07T15:51:43.307Z,0.90
2023-02-07T15:56:39.409Z,0.90
2023-02-07T16:01:33.872Z,0.80
2023-02-07T16:06:31.100Z,0.70
2023-02-07T16:11:41.382Z,0.70
2023-02-07T16:16:40.958Z,0.70
2023-02-07T16:21:36.055Z,0.70
2023-02-07T16:26:31.055Z,0.60
2023-02-07T16:31:25.876Z,0.50
2023-02-07T16:36:20.323Z,0.50
2023-02-07T16:41:31.308Z,0.50
2023-02-07T16:46:26.238Z,0.60
2023-02-07T16:51:19.944Z,0.50
2023-02-07T16:56:19.799Z,0.40
2023-02-07T17:01:19.991Z,0.40
2023-02-07T17:06:17.034Z,0.40
2023-02-07T17:11:20.731Z,0.20
2023-02-07T17:16:15.412Z,0.10
2023-02-07T17:26:24.435Z,-0.30
2023-02-07T17:31:17.852Z,-0.40
2023-02-07T17:36:14.087Z,-0.50
2023-02-07T17:41:09.542Z,-0.40
2023-02-07T17:46:04.479Z,-0.40
2023-02-07T17:50:58.241Z,-0.40
2023-02-07T17:55:52.744Z,-0.40
2023-02-07T18:00:48.399Z,-0.50
2023-02-07T18:05:45.041Z,-0.50
2023-02-07T18:10:44.387Z,-0.50
2023-02-07T18:15:37.942Z,-0.50
2023-02-07T18:20:35.274Z,-0.70
2023-02-07T18:25:31.907Z,-0.70
2023-02-07T18:30:27.839Z,-0.60
2023-02-07T18:36:44.159Z,-0.60
2023-02-07T18:41:39.273Z,-0.60
2023-02-07T18:46:33.383Z,-0.80
2023-02-07T18:51:29.098Z,-0.70
2023-02-07T18:56:27.701Z,-0.80
2023-02-07T19:01:22.985Z,-0.80
2023-02-07T19:06:16.332Z,-0.80
2023-02-07T19:11:14.960Z,-0.70
2023-02-07T19:16:12.713Z,-0.70
2023-02-07T19:21:15.621Z,-0.70
2023-02-07T19:26:10.906Z,-0.70
2023-02-07T19:31:21.393Z,-0.80
2023-02-07T19:36:23.231Z,-0.80
2023-02-07T19:41:19.268Z,-0.80
2023-02-07T19:46:14.234Z,-0.80
2023-02-07T19:51:13.657Z,-0.90
2023-02-07T19:56:11.216Z,-0.90
2023-02-07T20:21:53.309Z,-1.00
2023-02-07T20:26:46.838Z,-1.00
2023-02-07T20:31:40.988Z,-1.00
2023-02-07T20:36:41.438Z,-1.00
2023-02-07T21:02:05.040Z,-1.10
2023-02-07T21:06:58.551Z,-1.10
2023-02-07T21:11:54.143Z,-1.10
2023-02-07T21:16:47.853Z,-1.20
2023-02-07T21:21:43.379Z,-1.20
2023-02-07T21:26:36.831Z,-1.20
2023-02-07T21:31:34.705Z,-1.20
2023-02-07T21:36:30.775Z,-1.40
2023-02-07T21:46:29.936Z,-1.50
2023-02-07T21:51:27.089Z,-1.60
2023-02-07T22:01:25.643Z,-1.50
2023-02-07T22:06:20.212Z,-1.40
2023-02-07T22:11:15.715Z,-1.40
2023-02-07T22:41:46.620Z,-1.10
2023-02-07T22:46:40.513Z,-1.10
2023-02-07T22:51:37.679Z,-1.20
2023-02-07T22:56:34.453Z,-1.20
2023-02-07T23:37:23.824Z,-1.30
2023-02-07T23:47:23.908Z,-1.40
2023-02-07T23:57:25.390Z,-1.60
